Time;durP1;ratioP1;P1;durP2;ratioP2;P2;SDS_P1;SDS_P2;PMS_P1;PMS_P2;Temp;Humidity;BMP_temperature;BMP_pressure;BME280_temperature;BME280_humidity;BME280_pressure;Samples;Min_cycle;Max_cycle;Signal;HPM_P1;HPM_P2
2024/01/16 00:01:23;;;;;;;10.43;6.50;;;-1.70;99.90;;;;;;502918;236;27495;-65
2024/01/16 00:03:24;;;;;;;9.93;6.68;;;-1.70;99.90;;;;;;503000;236;27886;-65
2024/01/16 00:05:26;;;;;;;10.32;6.97;;;-1.70;99.90;;;;;;502981;236;29038;-65
2024/01/16 00:07:27;;;;;;;15.60;6.65;;;-1.70;99.90;;;;;;503057;236;27552;-67
2024/01/16 00:09:28;;;;;;;8.77;5.95;;;-1.80;99.90;;;;;;502978;236;27439;-65
2024/01/16 00:11:29;;;;;;;9.43;6.80;;;-1.90;99.90;;;;;;503017;236;27480;-65
2024/01/16 00:13:31;;;;;;;18.15;6.90;;;-2.00;99.90;;;;;;503003;236;27463;-65
2024/01/16 00:15:32;;;;;;;10.23;6.80;;;-2.10;99.90;;;;;;502968;236;27517;-65
2024/01/16 00:17:33;;;;;;;7.35;6.35;;;-2.10;99.90;;;;;;503046;236;27978;-65
2024/01/16 00:19:34;;;;;;;9.40;6.40;;;-2.10;99.90;;;;;;502992;236;28995;-65
2024/01/16 00:21:36;;;;;;;8.07;6.12;;;-2.10;99.90;;;;;;502917;236;27560;-65
2024/01/16 00:23:37;;;;;;;9.18;6.45;;;-2.10;99.90;;;;;;502846;236;27492;-66
2024/01/16 00:25:38;;;;;;;8.18;6.32;;;-2.10;99.90;;;;;;502755;236;27517;-65
2024/01/16 00:27:42;;;;;;;12.35;6.53;;;-2.10;99.90;;;;;;502700;236;27576;-65
2024/01/16 00:29:42;;;;;;;9.30;6.00;;;-2.10;99.90;;;;;;502736;236;27459;-65
2024/01/16 00:31:43;;;;;;;12.98;6.43;;;-2.20;99.90;;;;;;503010;236;27476;-65
2024/01/16 00:33:45;;;;;;;7.78;5.75;;;-2.20;99.90;;;;;;503012;236;27532;-65
2024/01/16 00:35:46;;;;;;;9.35;6.55;;;-2.30;99.90;;;;;;502955;236;27488;-65
2024/01/16 00:37:47;;;;;;;9.65;6.30;;;-2.30;99.90;;;;;;503002;236;27824;-67
2024/01/16 00:39:48;;;;;;;11.85;6.97;;;-2.20;99.90;;;;;;503048;236;27470;-65
2024/01/16 00:41:50;;;;;;;7.65;5.82;;;-2.20;99.90;;;;;;502977;236;27511;-65
2024/01/16 00:43:51;;;;;;;8.00;5.75;;;-2.20;99.90;;;;;;502982;236;27539;-65
2024/01/16 00:45:52;;;;;;;8.95;6.15;;;-2.20;99.90;;;;;;502963;236;27605;-65
2024/01/16 00:47:53;;;;;;;7.90;6.43;;;-2.20;99.90;;;;;;502989;236;27556;-66
2024/01/16 00:49:55;;;;;;;9.95;7.20;;;-2.20;99.90;;;;;;503031;236;27469;-65
2024/01/16 00:51:56;;;;;;;9.90;6.43;;;-2.10;99.90;;;;;;502997;236;27541;-66
2024/01/16 00:53:57;;;;;;;9.70;6.82;;;-2.10;99.90;;;;;;502978;236;28792;-65
2024/01/16 00:55:59;;;;;;;11.55;6.68;;;-2.10;99.90;;;;;;502895;236;27460;-65
2024/01/16 00:58:00;;;;;;;7.65;6.28;;;-2.10;99.90;;;;;;503034;236;27611;-65
2024/01/16 01:00:01;;;;;;;13.88;7.25;;;-2.10;99.90;;;;;;502770;236;27456;-65
2024/01/16 01:02:03;;;;;;;13.27;6.90;;;-2.00;99.90;;;;;;502938;236;27506;-65
2024/01/16 01:04:04;;;;;;;12.60;7.40;;;-2.00;99.90;;;;;;503049;236;27499;-66
2024/01/16 01:06:05;;;;;;;11.48;6.68;;;-2.00;99.90;;;;;;502972;236;27496;-65
2024/01/16 01:08:07;;;;;;;14.32;6.95;;;-2.00;99.90;;;;;;502982;236;27576;-65
2024/01/16 01:10:07;;;;;;;13.73;7.80;;;-2.00;99.90;;;;;;502950;236;27459;-65
2024/01/16 01:12:09;;;;;;;15.10;8.13;;;-2.00;99.90;;;;;;503031;236;27904;-65
2024/01/16 01:14:10;;;;;;;12.63;7.07;;;-1.90;99.90;;;;;;503027;236;27970;-66
2024/01/16 01:16:11;;;;;;;11.43;7.93;;;-1.80;99.90;;;;;;502953;236;27441;-65
2024/01/16 01:18:13;;;;;;;13.68;7.43;;;-1.80;99.90;;;;;;502979;236;27469;-66
2024/01/16 01:20:14;;;;;;;15.55;8.57;;;-1.80;99.90;;;;;;503006;236;27489;-66
2024/01/16 01:22:15;;;;;;;11.95;8.45;;;-1.80;99.90;;;;;;503014;236;27454;-65
2024/01/16 01:24:16;;;;;;;10.30;7.78;;;-1.80;99.90;;;;;;502977;236;27487;-66
2024/01/16 01:26:20;;;;;;;10.75;7.47;;;-1.80;99.90;;;;;;503003;236;27450;-65
2024/01/16 01:28:22;;;;;;;14.10;8.65;;;-1.80;99.90;;;;;;502991;236;27508;-65
2024/01/16 01:30:23;;;;;;;11.38;8.15;;;-1.70;99.90;;;;;;503045;236;27971;-65
2024/01/16 01:32:24;;;;;;;13.43;7.32;;;-1.70;99.90;;;;;;503003;236;29043;-66
2024/01/16 01:34:26;;;;;;;11.50;6.90;;;-1.70;99.90;;;;;;502955;236;27434;-65
2024/01/16 01:36:27;;;;;;;11.23;7.50;;;-1.70;99.90;;;;;;502982;236;27508;-65
2024/01/16 01:38:28;;;;;;;13.50;8.18;;;-1.70;99.90;;;;;;503040;236;27509;-66
2024/01/16 01:40:29;;;;;;;10.50;8.05;;;-1.70;99.90;;;;;;503013;236;27516;-65
2024/01/16 01:42:31;;;;;;;10.88;7.30;;;-1.70;99.90;;;;;;503001;236;27489;-65
2024/01/16 01:44:32;;;;;;;10.60;7.00;;;-1.70;99.90;;;;;;502941;236;27576;-65
2024/01/16 01:46:34;;;;;;;9.95;7.05;;;-1.70;99.90;;;;;;503044;236;27562;-65
2024/01/16 01:48:34;;;;;;;11.88;7.87;;;-1.70;99.90;;;;;;503015;236;27498;-65
2024/01/16 01:50:36;;;;;;;11.30;7.80;;;-1.70;99.90;;;;;;503016;236;27542;-66
2024/01/16 01:52:37;;;;;;;11.50;8.07;;;-1.70;99.90;;;;;;502956;236;27497;-65
2024/01/16 01:54:38;;;;;;;10.82;7.65;;;-1.60;99.90;;;;;;502978;236;27517;-67
2024/01/16 01:56:40;;;;;;;13.98;8.57;;;-1.60;99.90;;;;;;503029;236;27488;-65
2024/01/16 01:58:41;;;;;;;15.73;9.75;;;-1.60;99.90;;;;;;503005;236;27597;-65
2024/01/16 02:00:42;;;;;;;14.93;8.75;;;-1.60;99.90;;;;;;502992;236;27445;-65
2024/01/16 02:02:44;;;;;;;13.68;8.73;;;-1.60;99.90;;;;;;502983;236;27926;-66
2024/01/16 02:04:47;;;;;;;13.50;7.95;;;-1.60;99.90;;;;;;502942;236;29109;-66
2024/01/16 02:06:46;;;;;;;12.30;8.15;;;-1.60;99.90;;;;;;502862;236;27441;-65
2024/01/16 02:08:47;;;;;;;12.85;7.93;;;-1.60;99.90;;;;;;503003;236;27523;-65
2024/01/16 02:10:49;;;;;;;15.18;7.60;;;-1.50;99.90;;;;;;502997;236;27473;-65
2024/01/16 02:12:50;;;;;;;10.98;7.62;;;-1.60;99.90;;;;;;503002;236;27466;-65
2024/01/16 02:14:51;;;;;;;18.10;9.07;;;-1.60;99.90;;;;;;502985;236;27497;-66
2024/01/16 02:16:52;;;;;;;11.80;8.25;;;-1.60;99.90;;;;;;502976;236;27453;-65
2024/01/16 02:18:53;;;;;;;12.43;9.68;;;-1.60;99.90;;;;;;502985;236;27948;-65
2024/01/16 02:20:55;;;;;;;18.48;8.60;;;-1.60;99.90;;;;;;502868;236;29032;-66
2024/01/16 02:22:56;;;;;;;12.93;8.15;;;-1.70;99.90;;;;;;502987;236;27470;-65
2024/01/16 02:24:57;;;;;;;14.40;8.60;;;-1.60;99.90;;;;;;503008;236;27581;-65
2024/01/16 02:26:58;;;;;;;13.27;8.32;;;-1.70;99.90;;;;;;503016;236;27453;-65
2024/01/16 02:29:00;;;;;;;9.43;6.62;;;-1.70;99.90;;;;;;502686;236;27971;-66
2024/01/16 02:31:01;;;;;;;11.65;7.90;;;-1.80;99.90;;;;;;503054;236;27886;-66
2024/01/16 02:33:03;;;;;;;15.75;8.30;;;-1.80;99.90;;;;;;502853;236;27907;-65
2024/01/16 02:35:05;;;;;;;15.00;8.00;;;-1.80;99.90;;;;;;502920;236;27506;-65
2024/01/16 02:37:05;;;;;;;12.77;7.30;;;-1.80;99.90;;;;;;502939;236;27466;-65
2024/01/16 02:39:06;;;;;;;10.85;7.82;;;-1.80;99.90;;;;;;503047;236;27447;-65
2024/01/16 02:41:07;;;;;;;14.00;8.52;;;-1.80;99.90;;;;;;503028;236;27508;-65
2024/01/16 02:43:08;;;;;;;12.88;6.95;;;-1.80;99.90;;;;;;503004;236;27447;-65
2024/01/16 02:45:10;;;;;;;13.43;8.50;;;-1.80;99.90;;;;;;502965;236;27996;-66
2024/01/16 02:47:11;;;;;;;13.93;8.23;;;-1.80;99.90;;;;;;503045;236;28130;-67
2024/01/16 02:49:12;;;;;;;11.35;8.00;;;-1.80;99.90;;;;;;503034;236;27553;-65
2024/01/16 02:51:14;;;;;;;19.48;7.50;;;-1.90;99.90;;;;;;503006;236;27477;-65
2024/01/16 02:53:15;;;;;;;18.40;9.10;;;-1.90;99.90;;;;;;502989;236;27541;-65
2024/01/16 02:55:16;;;;;;;10.55;7.55;;;-1.90;99.90;;;;;;503030;236;27449;-65
2024/01/16 02:57:17;;;;;;;13.15;8.30;;;-1.90;99.90;;;;;;503055;236;27573;-66
2024/01/16 02:59:19;;;;;;;11.27;7.80;;;-1.80;99.90;;;;;;503043;236;27449;-65
2024/01/16 03:01:20;;;;;;;14.85;7.55;;;-1.80;99.90;;;;;;502992;236;27949;-65
2024/01/16 03:03:21;;;;;;;10.65;7.47;;;-1.80;99.90;;;;;;503019;236;28972;-65
2024/01/16 03:05:22;;;;;;;10.27;7.47;;;-1.70;99.90;;;;;;502986;236;27442;-65
2024/01/16 03:07:24;;;;;;;15.52;7.90;;;-1.70;99.90;;;;;;503016;236;27487;-65
2024/01/16 03:09:25;;;;;;;17.65;8.43;;;-1.80;99.90;;;;;;503015;236;27515;-65
2024/01/16 03:11:26;;;;;;;10.80;7.70;;;-1.70;99.90;;;;;;503024;236;27568;-66
2024/01/16 03:13:27;;;;;;;14.25;8.02;;;-1.70;99.90;;;;;;503060;236;27542;-66
2024/01/16 03:15:30;;;;;;;14.82;8.43;;;-1.80;99.90;;;;;;503009;236;27438;-65
2024/01/16 03:17:30;;;;;;;16.55;8.65;;;-1.80;99.90;;;;;;502899;236;27966;-65
2024/01/16 03:19:31;;;;;;;12.30;8.00;;;-1.80;99.90;;;;;;502998;236;29228;-65
2024/01/16 03:21:33;;;;;;;16.15;8.18;;;-1.90;99.90;;;;;;503023;236;27478;-65
2024/01/16 03:23:34;;;;;;;14.35;8.40;;;-1.90;99.90;;;;;;503042;236;27478;-66
2024/01/16 03:25:38;;;;;;;17.33;9.82;;;-1.90;99.90;;;;;;502996;236;27446;-65
2024/01/16 03:27:36;;;;;;;13.50;8.40;;;-1.90;99.90;;;;;;502762;236;27592;-65
2024/01/16 03:29:37;;;;;;;10.43;7.62;;;-1.90;99.90;;;;;;503028;236;27494;-65
2024/01/16 03:31:39;;;;;;;11.98;8.15;;;-1.90;99.90;;;;;;503028;236;27526;-65
2024/01/16 03:33:42;;;;;;;11.07;7.50;;;-1.90;99.90;;;;;;503020;236;27505;-66
2024/01/16 03:35:41;;;;;;;12.65;7.65;;;-2.00;99.90;;;;;;502775;236;27526;-65
2024/01/16 03:37:42;;;;;;;10.57;7.60;;;-1.90;99.90;;;;;;502991;236;27909;-65
2024/01/16 03:39:45;;;;;;;10.18;7.53;;;-1.90;99.90;;;;;;503052;236;27965;-67
2024/01/16 03:41:45;;;;;;;13.15;8.18;;;-1.90;99.90;;;;;;503015;236;27519;-65
2024/01/16 03:43:46;;;;;;;11.65;7.82;;;-1.90;99.90;;;;;;503032;236;27509;-65
2024/01/16 03:45:47;;;;;;;11.93;7.50;;;-1.90;99.90;;;;;;502983;236;27455;-65
2024/01/16 03:47:50;;;;;;;10.68;7.12;;;-1.90;99.90;;;;;;503042;236;27575;-65
2024/01/16 03:49:50;;;;;;;11.45;7.35;;;-1.90;99.90;;;;;;502997;236;27501;-65
2024/01/16 03:51:51;;;;;;;11.18;7.47;;;-1.90;99.90;;;;;;503040;236;27541;-66
2024/01/16 03:53:53;;;;;;;15.80;7.43;;;-1.90;99.90;;;;;;502999;236;27942;-65
2024/01/16 03:55:54;;;;;;;12.32;7.50;;;-1.90;99.90;;;;;;502966;236;29765;-65
2024/01/16 03:57:55;;;;;;;19.55;8.02;;;-1.90;99.90;;;;;;503042;236;27529;-65
2024/01/16 03:59:56;;;;;;;9.75;7.70;;;-1.90;99.90;;;;;;503044;236;27483;-65
2024/01/16 04:01:58;;;;;;;10.13;7.90;;;-1.90;99.90;;;;;;503033;236;27521;-65
2024/01/16 04:03:59;;;;;;;15.52;8.00;;;-2.00;99.90;;;;;;503023;236;27482;-65
2024/01/16 04:06:00;;;;;;;13.07;7.70;;;-1.90;99.90;;;;;;503043;236;27595;-66
2024/01/16 04:08:02;;;;;;;11.15;7.72;;;-2.00;99.90;;;;;;503081;236;27450;-65
2024/01/16 04:10:05;;;;;;;12.35;7.53;;;-2.00;99.90;;;;;;503055;236;28055;-65
2024/01/16 04:12:04;;;;;;;16.02;8.63;;;-2.10;99.90;;;;;;502870;236;29749;-65
2024/01/16 04:14:05;;;;;;;11.60;7.22;;;-2.10;99.90;;;;;;503080;236;27470;-65
2024/01/16 04:16:06;;;;;;;9.63;7.37;;;-2.10;99.90;;;;;;502887;236;27569;-66
2024/01/16 04:18:08;;;;;;;15.82;7.80;;;-2.10;99.90;;;;;;502991;236;27445;-65
2024/01/16 04:20:09;;;;;;;12.88;8.30;;;-2.10;99.90;;;;;;502863;236;27518;-65
2024/01/16 04:22:10;;;;;;;10.00;7.20;;;-2.10;99.90;;;;;;503057;236;27480;-66
2024/01/16 04:24:11;;;;;;;11.05;7.68;;;-2.10;99.90;;;;;;503046;236;27471;-65
2024/01/16 04:26:13;;;;;;;12.30;7.57;;;-2.10;99.90;;;;;;502988;236;27944;-66
2024/01/16 04:28:14;;;;;;;15.35;8.73;;;-2.10;99.90;;;;;;502997;236;27984;-65
2024/01/16 04:30:15;;;;;;;13.43;7.97;;;-2.10;99.90;;;;;;502970;236;27600;-65
2024/01/16 04:32:16;;;;;;;12.15;7.55;;;-2.30;99.90;;;;;;503012;236;27481;-66
2024/01/16 04:34:18;;;;;;;15.77;8.50;;;-2.30;99.90;;;;;;502902;236;27463;-65
2024/01/16 04:36:19;;;;;;;14.77;7.68;;;-2.40;99.90;;;;;;502999;236;27535;-66
2024/01/16 04:38:20;;;;;;;15.27;8.85;;;-2.50;99.90;;;;;;502987;236;27493;-64
2024/01/16 04:40:22;;;;;;;15.32;8.80;;;-2.50;99.90;;;;;;503021;236;27457;-65
2024/01/16 04:42:23;;;;;;;17.65;8.40;;;-2.50;99.90;;;;;;503030;236;27897;-65
2024/01/16 04:44:24;;;;;;;10.25;7.62;;;-2.50;99.90;;;;;;502994;236;27893;-64
2024/01/16 04:46:25;;;;;;;22.25;10.40;;;-2.50;99.90;;;;;;502863;236;27471;-65
2024/01/16 04:48:27;;;;;;;12.05;8.30;;;-2.60;99.90;;;;;;503015;236;27378;-65
2024/01/16 04:50:31;;;;;;;26.30;13.38;;;-2.60;99.90;;;;;;503055;236;27565;-65
2024/01/16 04:52:29;;;;;;;15.48;10.48;;;-2.70;99.90;;;;;;502724;236;27274;-65
2024/01/16 04:54:30;;;;;;;19.15;10.25;;;-2.80;99.90;;;;;;502938;236;27497;-65
2024/01/16 04:56:32;;;;;;;18.30;9.65;;;-2.80;99.90;;;;;;502985;236;27982;-65
2024/01/16 04:58:33;;;;;;;15.48;8.38;;;-2.80;99.90;;;;;;503032;236;28031;-66
2024/01/16 05:00:34;;;;;;;18.35;9.65;;;-2.80;99.90;;;;;;503002;236;27432;-65
2024/01/16 05:02:35;;;;;;;12.82;8.05;;;-2.80;99.90;;;;;;502966;236;27473;-65
2024/01/16 05:04:38;;;;;;;15.27;9.00;;;-2.80;99.90;;;;;;502941;236;27462;-65
2024/01/16 05:06:39;;;;;;;15.38;8.32;;;-2.70;99.90;;;;;;503045;236;27330;-65
2024/01/16 05:08:40;;;;;;;13.70;8.70;;;-2.70;99.90;;;;;;503039;236;27537;-65
2024/01/16 05:10:41;;;;;;;13.82;9.20;;;-2.60;99.90;;;;;;502977;236;28695;-65
2024/01/16 05:12:42;;;;;;;15.82;8.55;;;-2.50;99.90;;;;;;502972;236;27901;-65
2024/01/16 05:14:43;;;;;;;15.80;7.90;;;-2.50;99.90;;;;;;502719;236;27514;-66
2024/01/16 05:16:45;;;;;;;17.42;9.50;;;-2.40;99.90;;;;;;502965;236;27464;-65
2024/01/16 05:18:46;;;;;;;14.70;8.60;;;-2.30;99.90;;;;;;502998;236;27433;-65
2024/01/16 05:20:47;;;;;;;16.12;9.73;;;-2.30;99.90;;;;;;503047;236;27576;-65
2024/01/16 05:22:49;;;;;;;14.63;8.13;;;-2.30;99.90;;;;;;503008;236;27914;-65
2024/01/16 05:24:50;;;;;;;11.18;8.02;;;-2.30;99.90;;;;;;502922;236;28046;-65
2024/01/16 05:26:51;;;;;;;14.45;8.77;;;-2.30;99.90;;;;;;502920;236;27574;-67
2024/01/16 05:28:52;;;;;;;15.55;8.93;;;-2.40;99.90;;;;;;503024;236;27440;-65
2024/01/16 05:30:54;;;;;;;15.73;9.15;;;-2.40;99.90;;;;;;503023;236;27537;-65
2024/01/16 05:32:55;;;;;;;15.07;8.77;;;-2.40;99.90;;;;;;502991;236;27473;-65
2024/01/16 05:34:57;;;;;;;20.83;8.63;;;-2.40;99.90;;;;;;502875;236;27488;-65
2024/01/16 05:36:57;;;;;;;16.00;9.00;;;-2.50;99.90;;;;;;503015;236;27393;-65
2024/01/16 05:38:59;;;;;;;17.33;8.23;;;-2.50;99.90;;;;;;503027;236;27986;-65
2024/01/16 05:41:00;;;;;;;20.00;8.95;;;-2.50;99.90;;;;;;503022;236;29059;-65
2024/01/16 05:43:01;;;;;;;10.95;8.10;;;-2.50;99.90;;;;;;502997;236;28011;-65
2024/01/16 05:45:02;;;;;;;14.02;8.75;;;-2.60;99.90;;;;;;502973;236;27577;-65
2024/01/16 05:47:04;;;;;;;18.08;9.90;;;-2.60;99.90;;;;;;502994;236;27480;-65
2024/01/16 05:49:05;;;;;;;13.85;8.35;;;-2.70;99.90;;;;;;503023;236;27612;-65
2024/01/16 05:51:06;;;;;;;18.33;9.80;;;-2.70;99.90;;;;;;503021;236;27504;-65
2024/01/16 05:53:08;;;;;;;19.55;9.25;;;-2.70;99.90;;;;;;503042;236;27501;-66
2024/01/16 05:55:09;;;;;;;16.42;8.70;;;-2.80;99.90;;;;;;502914;236;27922;-65
2024/01/16 05:57:10;;;;;;;17.35;9.15;;;-2.80;99.90;;;;;;503036;236;28020;-65
2024/01/16 05:59:11;;;;;;;15.18;8.32;;;-2.80;99.90;;;;;;503031;236;27352;-65
2024/01/16 06:01:13;;;;;;;17.80;9.50;;;-2.90;99.90;;;;;;503017;236;27450;-67
2024/01/16 06:03:14;;;;;;;12.35;8.30;;;-2.90;99.90;;;;;;503050;236;27550;-66
2024/01/16 06:05:15;;;;;;;12.25;8.15;;;-2.90;99.90;;;;;;503012;236;27228;-65
2024/01/16 06:07:16;;;;;;;14.57;9.00;;;-3.00;99.90;;;;;;503032;236;27423;-65
2024/01/16 06:09:18;;;;;;;12.75;8.95;;;-3.00;99.90;;;;;;503043;236;27329;-65
2024/01/16 06:11:20;;;;;;;19.10;9.60;;;-3.00;99.90;;;;;;503050;236;27690;-65
2024/01/16 06:13:20;;;;;;;16.67;9.73;;;-3.00;99.90;;;;;;502990;236;29062;-65
2024/01/16 06:15:21;;;;;;;17.95;8.68;;;-3.00;99.90;;;;;;502866;236;27587;-66
2024/01/16 06:17:23;;;;;;;15.25;8.35;;;-3.00;99.90;;;;;;502990;236;27505;-65
2024/01/16 06:19:24;;;;;;;19.92;9.13;;;-3.00;99.90;;;;;;503006;236;27368;-66
2024/01/16 06:21:26;;;;;;;14.75;9.10;;;-2.90;99.90;;;;;;503008;236;27383;-65
2024/01/16 06:23:26;;;;;;;13.57;8.40;;;-2.90;99.90;;;;;;502964;236;27513;-65
2024/01/16 06:25:28;;;;;;;15.45;8.65;;;-2.90;99.90;;;;;;502881;236;27360;-65
2024/01/16 06:27:29;;;;;;;15.18;9.20;;;-2.90;99.90;;;;;;503025;236;27933;-65
2024/01/16 06:29:30;;;;;;;13.23;8.40;;;-2.90;99.90;;;;;;502950;236;28101;-67
2024/01/16 06:31:31;;;;;;;18.70;8.15;;;-2.90;99.90;;;;;;503007;236;27469;-64
2024/01/16 06:33:33;;;;;;;14.05;8.40;;;-2.90;99.90;;;;;;503003;236;27601;-66
2024/01/16 06:35:34;;;;;;;17.62;9.02;;;-2.90;99.90;;;;;;502902;236;27369;-65
2024/01/16 06:37:35;;;;;;;14.60;8.55;;;-2.80;99.90;;;;;;503007;236;27501;-65
2024/01/16 06:39:37;;;;;;;16.33;9.82;;;-2.90;99.90;;;;;;502947;236;27471;-66
2024/01/16 06:41:38;;;;;;;15.55;9.10;;;-2.80;99.90;;;;;;502923;236;27894;-65
2024/01/16 06:43:39;;;;;;;15.55;9.52;;;-2.80;99.90;;;;;;502951;236;29070;-65
2024/01/16 06:45:40;;;;;;;12.30;8.35;;;-2.80;99.90;;;;;;502944;236;27545;-66
2024/01/16 06:47:41;;;;;;;13.25;7.82;;;-2.80;99.90;;;;;;502993;236;27493;-65
2024/01/16 06:49:43;;;;;;;16.95;9.55;;;-2.80;99.90;;;;;;502960;236;27523;-66
2024/01/16 06:51:44;;;;;;;14.90;8.65;;;-2.80;99.90;;;;;;502934;236;27470;-65
2024/01/16 06:53:45;;;;;;;16.42;8.48;;;-2.80;99.90;;;;;;502951;236;27518;-65
2024/01/16 06:55:47;;;;;;;12.77;8.15;;;-2.80;99.90;;;;;;502911;236;27587;-66
2024/01/16 06:57:48;;;;;;;15.52;8.90;;;-2.80;99.90;;;;;;503015;236;27528;-65
2024/01/16 06:59:49;;;;;;;13.35;8.50;;;-2.80;99.90;;;;;;502972;236;28029;-65
2024/01/16 07:01:51;;;;;;;14.02;8.13;;;-2.80;99.90;;;;;;503005;236;28647;-65
2024/01/16 07:03:52;;;;;;;14.18;9.23;;;-2.80;99.90;;;;;;503031;236;29098;-65
2024/01/16 07:05:53;;;;;;;18.27;9.48;;;-2.80;99.90;;;;;;503013;236;27477;-66
2024/01/16 07:07:54;;;;;;;18.45;9.90;;;-2.80;99.90;;;;;;503016;236;27512;-64
2024/01/16 07:09:55;;;;;;;18.40;9.35;;;-2.80;99.90;;;;;;502987;236;27569;-65
2024/01/16 07:11:57;;;;;;;15.77;9.25;;;-2.80;99.90;;;;;;503036;236;27603;-66
2024/01/16 07:13:58;;;;;;;17.35;9.25;;;-2.80;99.90;;;;;;503040;236;27557;-65
2024/01/16 07:15:59;;;;;;;14.45;9.20;;;-2.80;99.90;;;;;;502887;236;28024;-65
2024/01/16 07:18:00;;;;;;;14.07;8.57;;;-2.80;99.90;;;;;;502996;236;29001;-65
2024/01/16 07:20:02;;;;;;;15.50;9.00;;;-2.80;99.90;;;;;;502999;236;27536;-65
2024/01/16 07:22:03;;;;;;;13.23;8.65;;;-2.80;99.90;;;;;;502994;236;27520;-66
2024/01/16 07:24:04;;;;;;;16.95;8.20;;;-2.80;99.90;;;;;;502980;236;27352;-65
2024/01/16 07:26:06;;;;;;;16.17;8.50;;;-2.80;99.90;;;;;;503025;236;27480;-65
2024/01/16 07:28:07;;;;;;;14.65;8.95;;;-2.90;99.90;;;;;;503009;236;27813;-65
2024/01/16 07:30:08;;;;;;;16.60;9.80;;;-2.80;99.90;;;;;;503032;236;27438;-65
2024/01/16 07:32:10;;;;;;;15.80;8.30;;;-2.90;99.90;;;;;;503052;236;27966;-66
2024/01/16 07:34:10;;;;;;;12.70;8.43;;;-2.80;99.90;;;;;;502993;236;29095;-65
2024/01/16 07:36:12;;;;;;;14.05;8.50;;;-2.80;99.90;;;;;;502983;236;27543;-66
2024/01/16 07:38:13;;;;;;;13.60;8.40;;;-2.80;99.90;;;;;;503045;236;27367;-66
2024/01/16 07:40:16;;;;;;;14.93;9.95;;;-2.70;99.90;;;;;;503065;236;27528;-65
2024/01/16 07:42:15;;;;;;;17.02;9.63;;;-2.80;99.90;;;;;;502886;236;27497;-65
2024/01/16 07:44:17;;;;;;;22.73;9.90;;;-2.80;99.90;;;;;;502987;236;27459;-65
2024/01/16 07:46:18;;;;;;;14.65;9.52;;;-2.70;99.90;;;;;;503030;236;28011;-65
2024/01/16 07:48:19;;;;;;;15.15;9.35;;;-2.80;99.90;;;;;;503079;236;28065;-66
2024/01/16 07:50:20;;;;;;;15.05;9.35;;;-2.80;99.90;;;;;;503059;236;27913;-65
2024/01/16 07:52:22;;;;;;;15.50;9.48;;;-2.80;99.90;;;;;;503046;236;27483;-65
2024/01/16 07:54:24;;;;;;;17.45;9.30;;;-2.80;99.90;;;;;;502972;236;27418;-65
2024/01/16 07:56:24;;;;;;;14.45;8.23;;;-2.80;99.90;;;;;;503025;236;27466;-65
2024/01/16 07:58:26;;;;;;;11.18;8.05;;;-2.80;99.90;;;;;;503053;236;27483;-65
2024/01/16 08:00:27;;;;;;;13.80;8.95;;;-2.80;99.90;;;;;;502981;236;27357;-65
2024/01/16 08:02:28;;;;;;;19.08;9.93;;;-2.80;99.90;;;;;;502994;236;27962;-66
2024/01/16 08:04:29;;;;;;;16.15;9.80;;;-2.70;99.90;;;;;;502933;236;28146;-66
2024/01/16 08:06:31;;;;;;;13.18;9.00;;;-2.70;99.90;;;;;;503038;236;27892;-65
2024/01/16 08:08:33;;;;;;;26.40;12.05;;;-2.70;99.90;;;;;;503026;236;27475;-66
2024/01/16 08:10:33;;;;;;;19.70;10.55;;;-2.70;99.90;;;;;;502941;236;27449;-66
2024/01/16 08:12:34;;;;;;;20.67;10.88;;;-2.70;99.90;;;;;;502927;236;27473;-65
2024/01/16 08:14:36;;;;;;;22.05;9.93;;;-2.70;99.90;;;;;;502895;236;27566;-65
2024/01/16 08:16:37;;;;;;;14.15;9.60;;;-2.70;99.90;;;;;;502835;236;27843;-65
2024/01/16 08:18:38;;;;;;;20.27;11.30;;;-2.70;99.90;;;;;;502704;236;27972;-65
2024/01/16 08:20:39;;;;;;;19.15;9.73;;;-2.60;99.90;;;;;;502729;236;28970;-65
2024/01/16 08:22:41;;;;;;;17.27;10.38;;;-2.60;99.90;;;;;;502997;236;27433;-65
2024/01/16 08:24:42;;;;;;;19.12;10.70;;;-2.60;99.90;;;;;;503001;236;27485;-65
2024/01/16 08:26:43;;;;;;;18.62;10.32;;;-2.50;99.90;;;;;;503014;236;27451;-65
2024/01/16 08:28:44;;;;;;;19.70;11.05;;;-2.50;99.90;;;;;;502975;236;27480;-65
2024/01/16 08:30:46;;;;;;;19.75;10.95;;;-2.50;99.90;;;;;;503060;236;27941;-65
2024/01/16 08:32:47;;;;;;;17.65;9.85;;;-2.50;99.90;;;;;;502972;236;27922;-65
2024/01/16 08:34:48;;;;;;;26.20;11.45;;;-2.50;99.90;;;;;;502941;236;27560;-66
2024/01/16 08:36:49;;;;;;;21.30;10.60;;;-2.40;99.90;;;;;;503004;236;27457;-65
2024/01/16 08:38:51;;;;;;;17.48;10.27;;;-2.40;99.90;;;;;;503050;236;27534;-65
2024/01/16 08:40:52;;;;;;;21.33;9.82;;;-2.40;99.90;;;;;;503065;236;27523;-65
2024/01/16 08:42:54;;;;;;;23.30;9.77;;;-2.30;99.90;;;;;;503011;236;27429;-65
2024/01/16 08:44:54;;;;;;;18.40;10.80;;;-2.20;99.90;;;;;;502898;236;27927;-65
2024/01/16 08:46:57;;;;;;;18.73;11.48;;;-2.20;99.90;;;;;;502976;236;27907;-65
2024/01/16 08:48:57;;;;;;;17.70;11.35;;;-2.10;99.90;;;;;;502972;236;27544;-65
2024/01/16 08:50:58;;;;;;;19.85;10.50;;;-2.10;99.90;;;;;;503026;236;27477;-65
2024/01/16 08:53:00;;;;;;;17.45;9.90;;;-2.10;99.90;;;;;;503003;236;27443;-65
2024/01/16 08:55:01;;;;;;;18.67;10.23;;;-2.20;99.90;;;;;;502946;236;27533;-65
2024/01/16 08:57:02;;;;;;;17.90;10.10;;;-2.20;99.90;;;;;;503020;236;27509;-66
2024/01/16 08:59:03;;;;;;;16.42;10.38;;;-2.20;99.90;;;;;;503058;236;28081;-65
2024/01/16 09:01:08;;;;;;;20.15;11.05;;;-2.20;99.90;;;;;;503020;236;27504;-66
2024/01/16 09:03:09;;;;;;;19.00;10.88;;;-2.20;99.90;;;;;;502993;236;27920;-65
2024/01/16 09:05:10;;;;;;;18.35;11.77;;;-2.00;99.90;;;;;;502998;236;27957;-66
2024/01/16 09:07:15;;;;;;;19.30;10.38;;;-2.00;99.90;;;;;;503019;236;27577;-65
2024/01/16 09:09:13;;;;;;;18.48;10.20;;;-1.90;99.90;;;;;;502695;236;27502;-66
2024/01/16 09:11:14;;;;;;;16.85;10.90;;;-1.90;99.90;;;;;;502978;236;27450;-65
2024/01/16 09:13:15;;;;;;;15.55;9.68;;;-1.90;99.90;;;;;;503066;236;27478;-65
2024/01/16 09:15:16;;;;;;;15.45;9.23;;;-1.90;99.90;;;;;;502986;236;27603;-65
2024/01/16 09:17:18;;;;;;;19.10;10.30;;;-1.80;99.90;;;;;;503017;236;27954;-64
2024/01/16 09:19:19;;;;;;;15.75;9.85;;;-1.80;99.90;;;;;;503008;236;29046;-66
2024/01/16 09:21:20;;;;;;;17.27;9.82;;;-1.70;99.90;;;;;;503045;236;27496;-66
2024/01/16 09:23:22;;;;;;;22.85;10.57;;;-1.70;99.90;;;;;;503034;236;27489;-65
2024/01/16 09:25:27;;;;;;;17.17;9.60;;;-1.70;99.90;;;;;;502991;236;27471;-66
2024/01/16 09:27:24;;;;;;;14.85;8.93;;;-1.50;99.90;;;;;;502702;236;27445;-66
2024/01/16 09:29:25;;;;;;;15.52;9.55;;;-1.50;99.90;;;;;;502986;236;27581;-66
2024/01/16 09:31:27;;;;;;;21.65;11.00;;;-1.50;99.90;;;;;;503016;236;27957;-66
2024/01/16 09:33:28;;;;;;;15.43;10.80;;;-1.30;99.90;;;;;;503021;236;29041;-65
2024/01/16 09:35:29;;;;;;;17.35;11.32;;;-1.30;99.90;;;;;;502975;236;27525;-65
2024/01/16 09:37:30;;;;;;;13.30;9.00;;;-1.20;99.90;;;;;;502957;236;27571;-65
2024/01/16 09:39:34;;;;;;;17.60;10.32;;;-1.10;99.90;;;;;;503034;236;27560;-65
2024/01/16 09:41:34;;;;;;;23.38;11.70;;;-1.10;99.90;;;;;;502850;236;27525;-66
2024/01/16 09:43:34;;;;;;;28.35;11.35;;;-1.10;99.90;;;;;;502972;236;27908;-65
2024/01/16 09:45:35;;;;;;;18.40;10.05;;;-1.00;99.90;;;;;;502942;236;29029;-65
2024/01/16 09:47:37;;;;;;;15.10;10.20;;;-1.00;99.90;;;;;;503027;236;27528;-66
2024/01/16 09:49:39;;;;;;;15.90;9.48;;;-0.90;99.90;;;;;;503033;236;27464;-65
2024/01/16 09:51:39;;;;;;;14.63;9.20;;;-0.90;99.90;;;;;;502977;236;27980;-66
2024/01/16 09:53:41;;;;;;;15.30;9.90;;;-0.80;99.90;;;;;;503003;236;27896;-65
2024/01/16 09:55:42;;;;;;;14.77;9.73;;;-0.80;99.90;;;;;;502957;236;27488;-65
2024/01/16 09:57:43;;;;;;;16.60;10.07;;;-0.90;99.90;;;;;;503006;236;27501;-66
2024/01/16 09:59:44;;;;;;;12.98;9.10;;;-0.80;99.90;;;;;;503008;236;27532;-66
2024/01/16 10:01:46;;;;;;;15.05;9.73;;;-0.70;99.90;;;;;;502984;236;27484;-66
2024/01/16 10:03:47;;;;;;;15.05;9.30;;;-0.80;99.90;;;;;;503003;236;27526;-66
2024/01/16 10:05:48;;;;;;;14.32;9.43;;;-0.70;99.90;;;;;;502977;236;27565;-65
2024/01/16 10:07:49;;;;;;;18.10;10.50;;;-0.70;99.90;;;;;;503019;236;28013;-66
2024/01/16 10:09:50;;;;;;;17.92;10.55;;;-0.70;99.90;;;;;;502968;236;27899;-65
2024/01/16 10:11:52;;;;;;;15.65;10.10;;;-0.70;99.90;;;;;;502987;236;27544;-66
2024/01/16 10:13:53;;;;;;;18.23;10.15;;;-0.60;99.90;;;;;;503051;236;27490;-67
2024/01/16 10:15:55;;;;;;;14.20;9.55;;;-0.50;99.90;;;;;;502986;236;27591;-65
2024/01/16 10:17:56;;;;;;;18.58;9.88;;;-0.30;99.90;;;;;;502983;236;27524;-66
2024/01/16 10:19:58;;;;;;;15.25;8.93;;;-0.30;99.90;;;;;;502989;236;27438;-65
2024/01/16 10:21:58;;;;;;;17.10;9.20;;;-0.20;99.90;;;;;;502896;236;28015;-66